sensor_id;sensor_type;location;lat;lon;timestamp;P1;durP1;ratioP1;P2;durP2;ratioP2
83630;SDS011;73593;52.134;5.426;2024-01-27T00:00:59;7.22;;;2.42;;
83630;SDS011;73593;52.134;5.426;2024-01-27T00:03:28;6.97;;;3.00;;
83630;SDS011;73593;52.134;5.426;2024-01-27T00:05:54;10.68;;;3.33;;
83630;SDS011;73593;52.134;5.426;2024-01-27T00:08:21;9.65;;;3.45;;
83630;SDS011;73593;52.134;5.426;2024-01-27T00:10:48;16.55;;;3.58;;
83630;SDS011;73593;52.134;5.426;2024-01-27T00:13:15;9.80;;;2.33;;
83630;SDS011;73593;52.134;5.426;2024-01-27T00:15:44;9.43;;;3.03;;
83630;SDS011;73593;52.134;5.426;2024-01-27T00:18:10;11.80;;;2.70;;
83630;SDS011;73593;52.134;5.426;2024-01-27T00:20:37;14.98;;;2.95;;
83630;SDS011;73593;52.134;5.426;2024-01-27T00:23:06;8.93;;;2.60;;
83630;SDS011;73593;52.134;5.426;2024-01-27T00:25:35;7.93;;;2.65;;
83630;SDS011;73593;52.134;5.426;2024-01-27T00:28:07;12.10;;;3.17;;
83630;SDS011;73593;52.134;5.426;2024-01-27T00:30:34;10.30;;;2.15;;
83630;SDS011;73593;52.134;5.426;2024-01-27T00:33:00;10.60;;;2.63;;
83630;SDS011;73593;52.134;5.426;2024-01-27T00:35:27;9.13;;;2.83;;
83630;SDS011;73593;52.134;5.426;2024-01-27T00:37:54;8.63;;;2.75;;
83630;SDS011;73593;52.134;5.426;2024-01-27T00:40:20;9.05;;;3.20;;
83630;SDS011;73593;52.134;5.426;2024-01-27T00:42:49;15.23;;;2.55;;
83630;SDS011;73593;52.134;5.426;2024-01-27T00:45:16;8.60;;;2.83;;
83630;SDS011;73593;52.134;5.426;2024-01-27T00:47:43;14.55;;;3.30;;
83630;SDS011;73593;52.134;5.426;2024-01-27T00:50:12;16.20;;;3.58;;
83630;SDS011;73593;52.134;5.426;2024-01-27T00:52:39;11.68;;;2.80;;
83630;SDS011;73593;52.134;5.426;2024-01-27T00:55:08;13.30;;;3.03;;
83630;SDS011;73593;52.134;5.426;2024-01-27T00:57:38;8.30;;;2.78;;
83630;SDS011;73593;52.134;5.426;2024-01-27T01:00:09;8.77;;;3.17;;
83630;SDS011;73593;52.134;5.426;2024-01-27T01:02:38;5.80;;;2.47;;
83630;SDS011;73593;52.134;5.426;2024-01-27T01:05:04;13.90;;;2.92;;
83630;SDS011;73593;52.134;5.426;2024-01-27T01:07:31;15.65;;;3.15;;
83630;SDS011;73593;52.134;5.426;2024-01-27T01:09:58;11.27;;;3.20;;
83630;SDS011;73593;52.134;5.426;2024-01-27T01:12:27;14.90;;;2.88;;
83630;SDS011;73593;52.134;5.426;2024-01-27T01:14:56;8.80;;;2.95;;
83630;SDS011;73593;52.134;5.426;2024-01-27T01:17:25;13.20;;;2.65;;
83630;SDS011;73593;52.134;5.426;2024-01-27T01:19:55;10.25;;;2.75;;
83630;SDS011;73593;52.134;5.426;2024-01-27T01:22:24;11.60;;;2.85;;
83630;SDS011;73593;52.134;5.426;2024-01-27T01:24:51;5.32;;;2.60;;
83630;SDS011;73593;52.134;5.426;2024-01-27T01:27:17;8.43;;;2.58;;
83630;SDS011;73593;52.134;5.426;2024-01-27T01:29:47;13.80;;;2.90;;
83630;SDS011;73593;52.134;5.426;2024-01-27T01:32:14;12.68;;;2.63;;
83630;SDS011;73593;52.134;5.426;2024-01-27T01:34:46;6.90;;;1.83;;
83630;SDS011;73593;52.134;5.426;2024-01-27T01:37:15;12.35;;;2.63;;
83630;SDS011;73593;52.134;5.426;2024-01-27T01:39:41;12.80;;;3.05;;
83630;SDS011;73593;52.134;5.426;2024-01-27T01:42:11;13.13;;;3.15;;
83630;SDS011;73593;52.134;5.426;2024-01-27T01:44:37;8.18;;;2.50;;
83630;SDS011;73593;52.134;5.426;2024-01-27T01:47:04;16.17;;;2.83;;
83630;SDS011;73593;52.134;5.426;2024-01-27T01:49:31;13.23;;;2.42;;
83630;SDS011;73593;52.134;5.426;2024-01-27T01:52:00;8.15;;;2.60;;
83630;SDS011;73593;52.134;5.426;2024-01-27T01:54:27;11.07;;;3.70;;
83630;SDS011;73593;52.134;5.426;2024-01-27T01:56:55;10.30;;;2.80;;
83630;SDS011;73593;52.134;5.426;2024-01-27T01:59:23;8.95;;;2.53;;
83630;SDS011;73593;52.134;5.426;2024-01-27T02:01:49;6.10;;;2.72;;
83630;SDS011;73593;52.134;5.426;2024-01-27T02:04:19;5.93;;;1.88;;
83630;SDS011;73593;52.134;5.426;2024-01-27T02:06:45;12.13;;;3.33;;
83630;SDS011;73593;52.134;5.426;2024-01-27T02:09:16;11.10;;;2.42;;
83630;SDS011;73593;52.134;5.426;2024-01-27T02:11:42;12.80;;;3.35;;
83630;SDS011;73593;52.134;5.426;2024-01-27T02:14:09;11.52;;;3.45;;
83630;SDS011;73593;52.134;5.426;2024-01-27T02:16:39;5.57;;;2.00;;
83630;SDS011;73593;52.134;5.426;2024-01-27T02:19:06;9.23;;;2.17;;
83630;SDS011;73593;52.134;5.426;2024-01-27T02:21:37;7.47;;;1.58;;
83630;SDS011;73593;52.134;5.426;2024-01-27T02:24:07;15.02;;;2.50;;
83630;SDS011;73593;52.134;5.426;2024-01-27T02:26:36;11.18;;;2.80;;
83630;SDS011;73593;52.134;5.426;2024-01-27T02:29:05;8.20;;;2.05;;
83630;SDS011;73593;52.134;5.426;2024-01-27T02:31:31;13.55;;;2.10;;
83630;SDS011;73593;52.134;5.426;2024-01-27T02:33:58;13.65;;;2.78;;
83630;SDS011;73593;52.134;5.426;2024-01-27T02:36:25;7.10;;;2.25;;
83630;SDS011;73593;52.134;5.426;2024-01-27T02:38:54;6.72;;;3.40;;
83630;SDS011;73593;52.134;5.426;2024-01-27T02:41:21;6.68;;;2.13;;
83630;SDS011;73593;52.134;5.426;2024-01-27T02:43:47;5.45;;;2.17;;
83630;SDS011;73593;52.134;5.426;2024-01-27T02:46:16;9.82;;;2.20;;
83630;SDS011;73593;52.134;5.426;2024-01-27T02:48:43;12.30;;;2.72;;
83630;SDS011;73593;52.134;5.426;2024-01-27T02:51:13;8.60;;;2.13;;
83630;SDS011;73593;52.134;5.426;2024-01-27T02:53:39;12.15;;;2.67;;
83630;SDS011;73593;52.134;5.426;2024-01-27T02:56:06;6.38;;;2.30;;
83630;SDS011;73593;52.134;5.426;2024-01-27T02:58:35;11.25;;;2.47;;
83630;SDS011;73593;52.134;5.426;2024-01-27T03:01:05;7.40;;;2.47;;
83630;SDS011;73593;52.134;5.426;2024-01-27T03:03:31;10.05;;;2.03;;
83630;SDS011;73593;52.134;5.426;2024-01-27T03:05:58;7.10;;;2.42;;
83630;SDS011;73593;52.134;5.426;2024-01-27T03:08:26;7.57;;;2.63;;
83630;SDS011;73593;52.134;5.426;2024-01-27T03:10:52;9.00;;;2.20;;
83630;SDS011;73593;52.134;5.426;2024-01-27T03:13:19;11.70;;;1.67;;
83630;SDS011;73593;52.134;5.426;2024-01-27T03:15:51;6.63;;;2.28;;
83630;SDS011;73593;52.134;5.426;2024-01-27T03:18:18;10.10;;;2.38;;
83630;SDS011;73593;52.134;5.426;2024-01-27T03:20:48;10.60;;;2.50;;
83630;SDS011;73593;52.134;5.426;2024-01-27T03:23:15;8.02;;;2.28;;
83630;SDS011;73593;52.134;5.426;2024-01-27T03:25:43;6.93;;;1.85;;
83630;SDS011;73593;52.134;5.426;2024-01-27T03:28:10;7.55;;;2.28;;
83630;SDS011;73593;52.134;5.426;2024-01-27T03:30:37;6.47;;;1.90;;
83630;SDS011;73593;52.134;5.426;2024-01-27T03:33:06;7.45;;;2.35;;
83630;SDS011;73593;52.134;5.426;2024-01-27T03:35:37;10.60;;;2.95;;
83630;SDS011;73593;52.134;5.426;2024-01-27T03:38:03;13.50;;;2.58;;
83630;SDS011;73593;52.134;5.426;2024-01-27T03:40:32;10.63;;;2.70;;
83630;SDS011;73593;52.134;5.426;2024-01-27T03:42:59;12.23;;;3.20;;
83630;SDS011;73593;52.134;5.426;2024-01-27T03:45:28;7.38;;;3.22;;
83630;SDS011;73593;52.134;5.426;2024-01-27T03:47:59;5.28;;;2.58;;
83630;SDS011;73593;52.134;5.426;2024-01-27T03:50:26;11.00;;;2.85;;
83630;SDS011;73593;52.134;5.426;2024-01-27T03:52:52;8.20;;;2.50;;
83630;SDS011;73593;52.134;5.426;2024-01-27T03:55:19;15.40;;;2.72;;
83630;SDS011;73593;52.134;5.426;2024-01-27T03:57:46;10.38;;;3.00;;
83630;SDS011;73593;52.134;5.426;2024-01-27T04:00:15;14.55;;;3.33;;
83630;SDS011;73593;52.134;5.426;2024-01-27T04:02:44;10.35;;;3.97;;
83630;SDS011;73593;52.134;5.426;2024-01-27T04:05:13;9.27;;;3.85;;
83630;SDS011;73593;52.134;5.426;2024-01-27T04:07:40;10.27;;;3.58;;
83630;SDS011;73593;52.134;5.426;2024-01-27T04:10:06;13.57;;;4.35;;
83630;SDS011;73593;52.134;5.426;2024-01-27T04:12:33;13.15;;;3.72;;
83630;SDS011;73593;52.134;5.426;2024-01-27T04:15:00;10.55;;;3.20;;
83630;SDS011;73593;52.134;5.426;2024-01-27T04:17:27;9.23;;;4.05;;
83630;SDS011;73593;52.134;5.426;2024-01-27T04:19:53;13.00;;;3.83;;
83630;SDS011;73593;52.134;5.426;2024-01-27T04:22:23;7.70;;;3.67;;
83630;SDS011;73593;52.134;5.426;2024-01-27T04:24:49;10.88;;;3.78;;
83630;SDS011;73593;52.134;5.426;2024-01-27T04:27:16;10.35;;;3.70;;
83630;SDS011;73593;52.134;5.426;2024-01-27T04:29:45;11.85;;;3.97;;
83630;SDS011;73593;52.134;5.426;2024-01-27T04:32:14;6.55;;;3.35;;
83630;SDS011;73593;52.134;5.426;2024-01-27T04:34:41;11.93;;;4.38;;
83630;SDS011;73593;52.134;5.426;2024-01-27T04:37:08;10.18;;;4.00;;
83630;SDS011;73593;52.134;5.426;2024-01-27T04:39:37;11.13;;;3.85;;
83630;SDS011;73593;52.134;5.426;2024-01-27T04:42:04;10.90;;;4.65;;
83630;SDS011;73593;52.134;5.426;2024-01-27T04:44:35;7.15;;;3.95;;
83630;SDS011;73593;52.134;5.426;2024-01-27T04:47:01;9.88;;;3.90;;
83630;SDS011;73593;52.134;5.426;2024-01-27T04:49:28;9.73;;;5.22;;
83630;SDS011;73593;52.134;5.426;2024-01-27T04:51:55;12.65;;;3.85;;
83630;SDS011;73593;52.134;5.426;2024-01-27T04:54:21;7.88;;;3.28;;
83630;SDS011;73593;52.134;5.426;2024-01-27T04:56:51;12.23;;;4.53;;
83630;SDS011;73593;52.134;5.426;2024-01-27T04:59:20;8.95;;;4.32;;
83630;SDS011;73593;52.134;5.426;2024-01-27T05:01:46;12.70;;;5.05;;
83630;SDS011;73593;52.134;5.426;2024-01-27T05:04:13;11.18;;;4.00;;
83630;SDS011;73593;52.134;5.426;2024-01-27T05:06:43;15.52;;;4.22;;
83630;SDS011;73593;52.134;5.426;2024-01-27T05:09:13;9.38;;;3.45;;
83630;SDS011;73593;52.134;5.426;2024-01-27T05:11:39;11.88;;;4.50;;
83630;SDS011;73593;52.134;5.426;2024-01-27T05:14:09;11.38;;;4.85;;
83630;SDS011;73593;52.134;5.426;2024-01-27T05:16:35;10.07;;;4.18;;
83630;SDS011;73593;52.134;5.426;2024-01-27T05:19:04;11.68;;;5.07;;
83630;SDS011;73593;52.134;5.426;2024-01-27T05:21:33;12.88;;;4.40;;
83630;SDS011;73593;52.134;5.426;2024-01-27T05:24:00;8.57;;;4.35;;
83630;SDS011;73593;52.134;5.426;2024-01-27T05:26:28;12.82;;;4.88;;
83630;SDS011;73593;52.134;5.426;2024-01-27T05:28:54;9.65;;;4.78;;
83630;SDS011;73593;52.134;5.426;2024-01-27T05:31:21;9.23;;;4.88;;
83630;SDS011;73593;52.134;5.426;2024-01-27T05:33:48;13.10;;;4.45;;
83630;SDS011;73593;52.134;5.426;2024-01-27T05:36:17;13.48;;;4.47;;
83630;SDS011;73593;52.134;5.426;2024-01-27T05:38:43;12.02;;;4.97;;
83630;SDS011;73593;52.134;5.426;2024-01-27T05:41:10;11.60;;;5.05;;
83630;SDS011;73593;52.134;5.426;2024-01-27T05:43:37;9.40;;;5.30;;
83630;SDS011;73593;52.134;5.426;2024-01-27T05:46:04;11.77;;;4.75;;
83630;SDS011;73593;52.134;5.426;2024-01-27T05:48:30;11.82;;;4.97;;
83630;SDS011;73593;52.134;5.426;2024-01-27T05:50:57;10.43;;;5.15;;
83630;SDS011;73593;52.134;5.426;2024-01-27T05:53:25;18.23;;;5.53;;
83630;SDS011;73593;52.134;5.426;2024-01-27T05:55:53;10.35;;;4.80;;
83630;SDS011;73593;52.134;5.426;2024-01-27T05:58:24;11.68;;;5.18;;
83630;SDS011;73593;52.134;5.426;2024-01-27T06:00:54;17.25;;;6.38;;
83630;SDS011;73593;52.134;5.426;2024-01-27T06:03:20;13.13;;;5.50;;
83630;SDS011;73593;52.134;5.426;2024-01-27T06:05:47;15.88;;;5.45;;
83630;SDS011;73593;52.134;5.426;2024-01-27T06:08:14;18.60;;;6.35;;
83630;SDS011;73593;52.134;5.426;2024-01-27T06:10:44;10.20;;;4.65;;
83630;SDS011;73593;52.134;5.426;2024-01-27T06:13:13;12.13;;;6.38;;
83630;SDS011;73593;52.134;5.426;2024-01-27T06:15:40;17.90;;;6.45;;
83630;SDS011;73593;52.134;5.426;2024-01-27T06:18:08;16.35;;;5.55;;
83630;SDS011;73593;52.134;5.426;2024-01-27T06:20:35;10.80;;;5.43;;
83630;SDS011;73593;52.134;5.426;2024-01-27T06:23:02;9.27;;;5.85;;
83630;SDS011;73593;52.134;5.426;2024-01-27T06:25:28;12.10;;;6.45;;
83630;SDS011;73593;52.134;5.426;2024-01-27T06:27:57;14.05;;;6.95;;
83630;SDS011;73593;52.134;5.426;2024-01-27T06:30:24;12.93;;;5.55;;
83630;SDS011;73593;52.134;5.426;2024-01-27T06:32:53;13.23;;;5.47;;
83630;SDS011;73593;52.134;5.426;2024-01-27T06:35:22;12.70;;;7.03;;
83630;SDS011;73593;52.134;5.426;2024-01-27T06:37:54;16.42;;;6.57;;
83630;SDS011;73593;52.134;5.426;2024-01-27T06:40:21;12.80;;;6.63;;
83630;SDS011;73593;52.134;5.426;2024-01-27T06:42:47;19.35;;;7.07;;
83630;SDS011;73593;52.134;5.426;2024-01-27T06:45:17;17.83;;;6.38;;
83630;SDS011;73593;52.134;5.426;2024-01-27T06:47:52;12.32;;;6.50;;
83630;SDS011;73593;52.134;5.426;2024-01-27T06:50:19;12.32;;;5.40;;
83630;SDS011;73593;52.134;5.426;2024-01-27T06:52:45;17.02;;;6.75;;
83630;SDS011;73593;52.134;5.426;2024-01-27T06:55:14;8.98;;;6.30;;
83630;SDS011;73593;52.134;5.426;2024-01-27T06:57:41;15.18;;;6.68;;
83630;SDS011;73593;52.134;5.426;2024-01-27T07:00:08;17.30;;;5.80;;
83630;SDS011;73593;52.134;5.426;2024-01-27T07:02:35;16.45;;;6.97;;
83630;SDS011;73593;52.134;5.426;2024-01-27T07:05:01;17.23;;;6.55;;
83630;SDS011;73593;52.134;5.426;2024-01-27T07:07:30;16.48;;;7.43;;
83630;SDS011;73593;52.134;5.426;2024-01-27T07:09:57;11.77;;;6.28;;
83630;SDS011;73593;52.134;5.426;2024-01-27T07:12:27;12.80;;;6.28;;
83630;SDS011;73593;52.134;5.426;2024-01-27T07:15:00;12.70;;;6.22;;
83630;SDS011;73593;52.134;5.426;2024-01-27T07:17:27;12.40;;;6.68;;
83630;SDS011;73593;52.134;5.426;2024-01-27T07:19:53;12.30;;;6.10;;
83630;SDS011;73593;52.134;5.426;2024-01-27T07:22:21;16.95;;;7.75;;
83630;SDS011;73593;52.134;5.426;2024-01-27T07:24:49;13.00;;;5.95;;
83630;SDS011;73593;52.134;5.426;2024-01-27T07:27:17;15.23;;;7.15;;
83630;SDS011;73593;52.134;5.426;2024-01-27T07:29:45;14.82;;;6.60;;
83630;SDS011;73593;52.134;5.426;2024-01-27T07:32:12;10.15;;;6.50;;
83630;SDS011;73593;52.134;5.426;2024-01-27T07:34:43;14.90;;;6.15;;
83630;SDS011;73593;52.134;5.426;2024-01-27T07:37:12;12.43;;;5.95;;
83630;SDS011;73593;52.134;5.426;2024-01-27T07:39:41;16.17;;;7.82;;
83630;SDS011;73593;52.134;5.426;2024-01-27T07:42:08;12.95;;;7.05;;
83630;SDS011;73593;52.134;5.426;2024-01-27T07:44:36;16.40;;;6.95;;
83630;SDS011;73593;52.134;5.426;2024-01-27T07:47:05;11.35;;;6.57;;
83630;SDS011;73593;52.134;5.426;2024-01-27T07:49:32;14.77;;;6.75;;
83630;SDS011;73593;52.134;5.426;2024-01-27T07:51:59;12.02;;;7.22;;
83630;SDS011;73593;52.134;5.426;2024-01-27T07:54:25;16.08;;;6.70;;
83630;SDS011;73593;52.134;5.426;2024-01-27T07:56:52;12.05;;;6.70;;
83630;SDS011;73593;52.134;5.426;2024-01-27T07:59:19;20.38;;;6.38;;
83630;SDS011;73593;52.134;5.426;2024-01-27T08:01:45;13.73;;;5.85;;
83630;SDS011;73593;52.134;5.426;2024-01-27T08:04:12;15.43;;;6.78;;
83630;SDS011;73593;52.134;5.426;2024-01-27T08:06:49;15.88;;;6.78;;
83630;SDS011;73593;52.134;5.426;2024-01-27T08:09:17;11.40;;;6.63;;
83630;SDS011;73593;52.134;5.426;2024-01-27T08:11:46;11.65;;;6.15;;
83630;SDS011;73593;52.134;5.426;2024-01-27T08:14:19;10.25;;;5.55;;
83630;SDS011;73593;52.134;5.426;2024-01-27T08:16:48;18.90;;;7.47;;
83630;SDS011;73593;52.134;5.426;2024-01-27T08:19:20;15.93;;;7.47;;
83630;SDS011;73593;52.134;5.426;2024-01-27T08:21:47;18.88;;;8.40;;
83630;SDS011;73593;52.134;5.426;2024-01-27T08:24:14;18.40;;;7.57;;
83630;SDS011;73593;52.134;5.426;2024-01-27T08:26:43;14.77;;;6.22;;
83630;SDS011;73593;52.134;5.426;2024-01-27T08:29:14;18.00;;;7.25;;
83630;SDS011;73593;52.134;5.426;2024-01-27T08:31:41;18.25;;;7.35;;
83630;SDS011;73593;52.134;5.426;2024-01-27T08:34:08;19.85;;;6.78;;
83630;SDS011;73593;52.134;5.426;2024-01-27T08:36:35;16.23;;;6.00;;
83630;SDS011;73593;52.134;5.426;2024-01-27T08:39:03;11.50;;;5.72;;
83630;SDS011;73593;52.134;5.426;2024-01-27T08:41:33;11.75;;;5.85;;
83630;SDS011;73593;52.134;5.426;2024-01-27T08:44:00;15.38;;;6.15;;
83630;SDS011;73593;52.134;5.426;2024-01-27T08:46:26;11.75;;;5.05;;
83630;SDS011;73593;52.134;5.426;2024-01-27T08:48:55;12.98;;;6.13;;
83630;SDS011;73593;52.134;5.426;2024-01-27T08:51:22;18.33;;;6.68;;
83630;SDS011;73593;52.134;5.426;2024-01-27T08:53:51;11.75;;;6.88;;
83630;SDS011;73593;52.134;5.426;2024-01-27T08:56:18;14.00;;;6.32;;
83630;SDS011;73593;52.134;5.426;2024-01-27T08:58:44;12.20;;;6.57;;
83630;SDS011;73593;52.134;5.426;2024-01-27T09:01:11;11.60;;;6.03;;
83630;SDS011;73593;52.134;5.426;2024-01-27T09:03:41;14.38;;;5.68;;
83630;SDS011;73593;52.134;5.426;2024-01-27T09:06:10;12.75;;;5.70;;
83630;SDS011;73593;52.134;5.426;2024-01-27T09:08:37;12.70;;;5.68;;
83630;SDS011;73593;52.134;5.426;2024-01-27T09:11:06;13.60;;;6.10;;
83630;SDS011;73593;52.134;5.426;2024-01-27T09:13:33;13.30;;;5.45;;
83630;SDS011;73593;52.134;5.426;2024-01-27T09:16:00;14.55;;;6.13;;
83630;SDS011;73593;52.134;5.426;2024-01-27T09:18:29;15.60;;;5.55;;
83630;SDS011;73593;52.134;5.426;2024-01-27T09:20:58;16.23;;;5.97;;
83630;SDS011;73593;52.134;5.426;2024-01-27T09:23:27;13.70;;;5.93;;
83630;SDS011;73593;52.134;5.426;2024-01-27T09:25:56;11.48;;;5.60;;
83630;SDS011;73593;52.134;5.426;2024-01-27T09:28:23;13.02;;;6.10;;
83630;SDS011;73593;52.134;5.426;2024-01-27T09:30:57;13.57;;;6.70;;
83630;SDS011;73593;52.134;5.426;2024-01-27T09:33:29;12.63;;;5.75;;
83630;SDS011;73593;52.134;5.426;2024-01-27T09:35:56;16.60;;;6.20;;
83630;SDS011;73593;52.134;5.426;2024-01-27T09:38:25;18.42;;;7.75;;
83630;SDS011;73593;52.134;5.426;2024-01-27T09:40:52;34.90;;;15.00;;
83630;SDS011;73593;52.134;5.426;2024-01-27T09:43:18;19.60;;;6.75;;
83630;SDS011;73593;52.134;5.426;2024-01-27T09:45:51;15.80;;;5.85;;
83630;SDS011;73593;52.134;5.426;2024-01-27T09:48:26;13.40;;;5.85;;
83630;SDS011;73593;52.134;5.426;2024-01-27T09:50:53;18.30;;;5.22;;
83630;SDS011;73593;52.134;5.426;2024-01-27T09:53:25;11.82;;;5.93;;
83630;SDS011;73593;52.134;5.426;2024-01-27T09:55:51;14.35;;;6.55;;
83630;SDS011;73593;52.134;5.426;2024-01-27T10:02:11;13.40;;;6.00;;
83630;SDS011;73593;52.134;5.426;2024-01-27T10:04:47;14.23;;;5.82;;
83630;SDS011;73593;52.134;5.426;2024-01-27T10:07:17;14.90;;;6.68;;
83630;SDS011;73593;52.134;5.426;2024-01-27T10:09:44;15.32;;;6.28;;
83630;SDS011;73593;52.134;5.426;2024-01-27T10:12:11;13.82;;;6.45;;
83630;SDS011;73593;52.134;5.426;2024-01-27T10:14:42;14.38;;;5.97;;
83630;SDS011;73593;52.134;5.426;2024-01-27T10:17:20;14.05;;;6.70;;
83630;SDS011;73593;52.134;5.426;2024-01-27T10:20:01;13.15;;;5.00;;
83630;SDS011;73593;52.134;5.426;2024-01-27T10:22:40;15.45;;;5.53;;
83630;SDS011;73593;52.134;5.426;2024-01-27T10:25:08;14.35;;;6.05;;
83630;SDS011;73593;52.134;5.426;2024-01-27T10:27:39;13.00;;;5.57;;
83630;SDS011;73593;52.134;5.426;2024-01-27T10:32:41;10.80;;;5.22;;
83630;SDS011;73593;52.134;5.426;2024-01-27T10:35:08;13.50;;;5.07;;
83630;SDS011;73593;52.134;5.426;2024-01-27T10:37:35;16.50;;;5.32;;
83630;SDS011;73593;52.134;5.426;2024-01-27T10:40:06;15.70;;;6.28;;
83630;SDS011;73593;52.134;5.426;2024-01-27T10:42:39;21.33;;;6.03;;
83630;SDS011;73593;52.134;5.426;2024-01-27T10:45:14;12.13;;;5.53;;
83630;SDS011;73593;52.134;5.426;2024-01-27T10:47:42;13.98;;;5.55;;
83630;SDS011;73593;52.134;5.426;2024-01-27T10:50:14;13.88;;;5.30;;
83630;SDS011;73593;52.134;5.426;2024-01-27T10:52:41;13.52;;;5.18;;
83630;SDS011;73593;52.134;5.426;2024-01-27T10:55:11;17.20;;;5.47;;
83630;SDS011;73593;52.134;5.426;2024-01-27T10:57:39;11.20;;;5.28;;
83630;SDS011;73593;52.134;5.426;2024-01-27T11:00:10;11.32;;;5.22;;
83630;SDS011;73593;52.134;5.426;2024-01-27T11:02:39;10.98;;;4.75;;
83630;SDS011;73593;52.134;5.426;2024-01-27T11:05:11;13.38;;;5.40;;
83630;SDS011;73593;52.134;5.426;2024-01-27T11:07:45;12.95;;;4.90;;
83630;SDS011;73593;52.134;5.426;2024-01-27T11:10:17;11.25;;;4.78;;
83630;SDS011;73593;52.134;5.426;2024-01-27T11:12:47;12.50;;;4.60;;
83630;SDS011;73593;52.134;5.426;2024-01-27T11:15:15;14.75;;;5.20;;
83630;SDS011;73593;52.134;5.426;2024-01-27T11:17:44;12.77;;;5.03;;
83630;SDS011;73593;52.134;5.426;2024-01-27T11:20:13;19.58;;;5.38;;
83630;SDS011;73593;52.134;5.426;2024-01-27T11:22:43;12.85;;;4.60;;
83630;SDS011;73593;52.134;5.426;2024-01-27T11:27:42;12.35;;;4.32;;
83630;SDS011;73593;52.134;5.426;2024-01-27T11:32:57;11.95;;;4.70;;
83630;SDS011;73593;52.134;5.426;2024-01-27T11:35:24;10.48;;;4.63;;
83630;SDS011;73593;52.134;5.426;2024-01-27T11:37:53;13.60;;;5.03;;
83630;SDS011;73593;52.134;5.426;2024-01-27T11:40:20;10.55;;;5.38;;
83630;SDS011;73593;52.134;5.426;2024-01-27T11:42:57;10.38;;;4.32;;
83630;SDS011;73593;52.134;5.426;2024-01-27T11:45:25;17.48;;;4.00;;
83630;SDS011;73593;52.134;5.426;2024-01-27T11:47:54;10.93;;;4.32;;
83630;SDS011;73593;52.134;5.426;2024-01-27T11:50:22;13.50;;;5.03;;
83630;SDS011;73593;52.134;5.426;2024-01-27T11:52:49;11.30;;;4.30;;
83630;SDS011;73593;52.134;5.426;2024-01-27T11:55:16;13.68;;;4.68;;
83630;SDS011;73593;52.134;5.426;2024-01-27T11:57:47;12.88;;;4.15;;
83630;SDS011;73593;52.134;5.426;2024-01-27T12:00:16;12.45;;;4.72;;
83630;SDS011;73593;52.134;5.426;2024-01-27T12:02:43;13.27;;;3.95;;
83630;SDS011;73593;52.134;5.426;2024-01-27T12:05:10;13.38;;;4.72;;
83630;SDS011;73593;52.134;5.426;2024-01-27T12:07:38;13.80;;;3.97;;
83630;SDS011;73593;52.134;5.426;2024-01-27T12:10:05;12.40;;;5.07;;
83630;SDS011;73593;52.134;5.426;2024-01-27T12:12:33;9.13;;;3.63;;
83630;SDS011;73593;52.134;5.426;2024-01-27T12:15:00;13.32;;;3.97;;
83630;SDS011;73593;52.134;5.426;2024-01-27T12:17:28;13.20;;;3.97;;
83630;SDS011;73593;52.134;5.426;2024-01-27T12:19:58;13.00;;;4.50;;
83630;SDS011;73593;52.134;5.426;2024-01-27T12:22:28;10.02;;;4.18;;
83630;SDS011;73593;52.134;5.426;2024-01-27T12:24:56;13.18;;;3.92;;
83630;SDS011;73593;52.134;5.426;2024-01-27T12:27:35;13.65;;;4.30;;
83630;SDS011;73593;52.134;5.426;2024-01-27T12:30:04;13.48;;;3.90;;
83630;SDS011;73593;52.134;5.426;2024-01-27T12:32:53;11.75;;;3.95;;
83630;SDS011;73593;52.134;5.426;2024-01-27T12:35:20;10.07;;;3.45;;
83630;SDS011;73593;52.134;5.426;2024-01-27T12:37:49;8.80;;;3.97;;
83630;SDS011;73593;52.134;5.426;2024-01-27T12:40:20;11.95;;;4.45;;
83630;SDS011;73593;52.134;5.426;2024-01-27T12:42:50;10.40;;;3.50;;
83630;SDS011;73593;52.134;5.426;2024-01-27T12:45:16;18.23;;;4.13;;
83630;SDS011;73593;52.134;5.426;2024-01-27T12:47:43;13.27;;;4.10;;
83630;SDS011;73593;52.134;5.426;2024-01-27T12:50:10;10.98;;;3.70;;
83630;SDS011;73593;52.134;5.426;2024-01-27T12:52:37;15.68;;;3.70;;
83630;SDS011;73593;52.134;5.426;2024-01-27T12:55:06;7.97;;;3.15;;
83630;SDS011;73593;52.134;5.426;2024-01-27T12:57:38;11.18;;;4.03;;
83630;SDS011;73593;52.134;5.426;2024-01-27T13:00:07;15.07;;;3.72;;
83630;SDS011;73593;52.134;5.426;2024-01-27T13:02:37;11.82;;;4.03;;
83630;SDS011;73593;52.134;5.426;2024-01-27T13:05:06;16.70;;;4.95;;
83630;SDS011;73593;52.134;5.426;2024-01-27T13:07:36;12.30;;;4.35;;
83630;SDS011;73593;52.134;5.426;2024-01-27T13:10:02;9.13;;;3.75;;
83630;SDS011;73593;52.134;5.426;2024-01-27T13:12:30;9.90;;;3.47;;
83630;SDS011;73593;52.134;5.426;2024-01-27T13:14:57;12.93;;;3.63;;
83630;SDS011;73593;52.134;5.426;2024-01-27T13:17:26;11.80;;;3.13;;
83630;SDS011;73593;52.134;5.426;2024-01-27T13:19:53;12.02;;;3.97;;
83630;SDS011;73593;52.134;5.426;2024-01-27T13:22:20;13.75;;;3.55;;
83630;SDS011;73593;52.134;5.426;2024-01-27T13:24:50;11.15;;;3.67;;
83630;SDS011;73593;52.134;5.426;2024-01-27T13:27:21;12.15;;;3.90;;
83630;SDS011;73593;52.134;5.426;2024-01-27T13:29:52;9.32;;;3.28;;
83630;SDS011;73593;52.134;5.426;2024-01-27T13:32:21;8.02;;;3.00;;
83630;SDS011;73593;52.134;5.426;2024-01-27T13:34:48;9.93;;;3.28;;
83630;SDS011;73593;52.134;5.426;2024-01-27T13:37:15;8.15;;;3.22;;
83630;SDS011;73593;52.134;5.426;2024-01-27T13:39:44;14.43;;;3.20;;
83630;SDS011;73593;52.134;5.426;2024-01-27T13:42:14;13.48;;;5.03;;
83630;SDS011;73593;52.134;5.426;2024-01-27T13:44:40;11.70;;;3.42;;
83630;SDS011;73593;52.134;5.426;2024-01-27T13:47:07;12.85;;;3.40;;
83630;SDS011;73593;52.134;5.426;2024-01-27T13:49:38;12.95;;;3.58;;
83630;SDS011;73593;52.134;5.426;2024-01-27T13:52:05;10.52;;;3.90;;
83630;SDS011;73593;52.134;5.426;2024-01-27T13:54:32;11.23;;;3.22;;
83630;SDS011;73593;52.134;5.426;2024-01-27T13:57:02;8.77;;;3.30;;
83630;SDS011;73593;52.134;5.426;2024-01-27T13:59:31;8.18;;;2.90;;
83630;SDS011;73593;52.134;5.426;2024-01-27T14:01:58;9.90;;;3.50;;
83630;SDS011;73593;52.134;5.426;2024-01-27T14:04:25;9.10;;;3.20;;
83630;SDS011;73593;52.134;5.426;2024-01-27T14:06:54;13.30;;;3.45;;
83630;SDS011;73593;52.134;5.426;2024-01-27T14:09:26;9.55;;;3.10;;
83630;SDS011;73593;52.134;5.426;2024-01-27T14:11:54;12.15;;;3.95;;
83630;SDS011;73593;52.134;5.426;2024-01-27T14:14:21;8.90;;;3.83;;
83630;SDS011;73593;52.134;5.426;2024-01-27T14:16:47;11.50;;;3.92;;
83630;SDS011;73593;52.134;5.426;2024-01-27T14:19:14;11.98;;;3.97;;
83630;SDS011;73593;52.134;5.426;2024-01-27T14:21:41;15.02;;;4.57;;
83630;SDS011;73593;52.134;5.426;2024-01-27T14:24:09;12.13;;;4.35;;
83630;SDS011;73593;52.134;5.426;2024-01-27T14:26:38;23.98;;;6.35;;
83630;SDS011;73593;52.134;5.426;2024-01-27T14:29:07;16.83;;;4.53;;
83630;SDS011;73593;52.134;5.426;2024-01-27T14:31:36;11.60;;;4.50;;
83630;SDS011;73593;52.134;5.426;2024-01-27T14:34:05;10.15;;;3.88;;
83630;SDS011;73593;52.134;5.426;2024-01-27T14:36:32;11.82;;;3.95;;
83630;SDS011;73593;52.134;5.426;2024-01-27T14:38:59;12.35;;;4.35;;
83630;SDS011;73593;52.134;5.426;2024-01-27T14:41:25;11.10;;;4.60;;
83630;SDS011;73593;52.134;5.426;2024-01-27T14:43:52;8.82;;;3.72;;
83630;SDS011;73593;52.134;5.426;2024-01-27T14:46:21;14.55;;;4.72;;
83630;SDS011;73593;52.134;5.426;2024-01-27T14:48:50;14.20;;;4.47;;
83630;SDS011;73593;52.134;5.426;2024-01-27T14:51:17;17.15;;;4.25;;
83630;SDS011;73593;52.134;5.426;2024-01-27T14:53:44;12.27;;;3.95;;
83630;SDS011;73593;52.134;5.426;2024-01-27T14:56:12;7.75;;;3.40;;